createdAt,value
2022-10-05T00:02:26.941Z,17.70
2022-10-05T00:04:56.229Z,17.67
2022-10-05T00:07:24.974Z,17.59
2022-10-05T00:09:56.378Z,17.51
2022-10-05T00:12:24.003Z,17.52
2022-10-05T00:14:53.508Z,17.46
2022-10-05T00:17:25.177Z,17.37
2022-10-05T00:19:53.833Z,17.40
2022-10-05T00:22:28.915Z,17.49
2022-10-05T00:24:57.960Z,17.57
2022-10-05T00:27:26.225Z,17.55
2022-10-05T00:29:57.734Z,17.55
2022-10-05T00:32:27.020Z,17.54
2022-10-05T00:34:54.785Z,17.58
2022-10-05T00:37:21.957Z,17.63
2022-10-05T00:39:49.605Z,17.65
2022-10-05T00:42:16.708Z,17.63
2022-10-05T00:44:54.545Z,17.57
2022-10-05T00:47:27.818Z,17.41
2022-10-05T00:50:06.970Z,17.28
2022-10-05T00:52:34.037Z,17.39
2022-10-05T00:55:20.179Z,17.47
2022-10-05T00:57:47.502Z,17.45
2022-10-05T01:00:17.392Z,17.38
2022-10-05T01:02:56.258Z,17.28
2022-10-05T01:05:23.404Z,17.26
2022-10-05T01:08:04.223Z,17.28
2022-10-05T01:10:42.832Z,17.38
2022-10-05T01:13:15.787Z,17.43
2022-10-05T01:15:46.175Z,17.51
2022-10-05T01:18:27.768Z,17.52
2022-10-05T01:20:59.740Z,17.48
2022-10-05T01:23:40.299Z,17.54
2022-10-05T01:26:33.941Z,17.56
2022-10-05T01:29:13.338Z,17.54
2022-10-05T01:31:49.753Z,17.57
2022-10-05T01:34:19.886Z,17.48
2022-10-05T01:36:56.793Z,17.44
2022-10-05T01:39:30.016Z,17.48
2022-10-05T01:41:57.225Z,17.51
2022-10-05T01:44:29.549Z,17.54
2022-10-05T01:47:03.251Z,17.55
2022-10-05T01:49:33.815Z,17.58
2022-10-05T01:52:13.221Z,17.69
2022-10-05T01:55:01.937Z,17.71
2022-10-05T01:57:29.017Z,17.69
2022-10-05T02:00:07.748Z,17.64
2022-10-05T02:02:56.057Z,17.62
2022-10-05T02:05:26.445Z,17.67
2022-10-05T02:07:57.566Z,17.67
2022-10-05T02:10:32.817Z,17.64
2022-10-05T02:13:20.373Z,17.63
2022-10-05T02:16:11.207Z,17.60
2022-10-05T02:18:59.105Z,17.58
2022-10-05T02:21:26.803Z,17.58
2022-10-05T02:23:57.134Z,17.61
2022-10-05T02:26:24.962Z,17.62
2022-10-05T02:28:56.351Z,17.61
2022-10-05T02:31:36.189Z,17.63
2022-10-05T02:34:26.410Z,17.62
2022-10-05T02:37:06.799Z,17.60
2022-10-05T02:39:57.609Z,17.60
2022-10-05T02:42:30.548Z,17.56
2022-10-05T02:44:58.404Z,17.46
2022-10-05T02:47:30.232Z,17.36
2022-10-05T02:50:02.721Z,17.42
2022-10-05T02:52:38.248Z,17.41
2022-10-05T02:55:17.686Z,17.44
2022-10-05T02:58:04.474Z,17.39
2022-10-05T03:00:36.286Z,17.32
2022-10-05T03:03:10.469Z,17.32
2022-10-05T03:05:40.580Z,17.38
2022-10-05T03:08:37.715Z,17.35
2022-10-05T03:11:15.247Z,17.36
2022-10-05T03:14:02.860Z,17.29
2022-10-05T03:16:34.398Z,17.15
2022-10-05T03:19:04.749Z,17.02
2022-10-05T03:21:46.203Z,17.10
2022-10-05T03:24:34.722Z,17.12
2022-10-05T03:27:07.978Z,17.16
2022-10-05T03:29:50.251Z,17.03
2022-10-05T03:32:20.550Z,17.08
2022-10-05T03:34:53.077Z,16.99
2022-10-05T03:37:20.685Z,17.00
2022-10-05T03:39:54.289Z,17.01
2022-10-05T03:42:32.126Z,17.09
2022-10-05T03:45:18.009Z,17.46
2022-10-05T03:48:03.804Z,17.55
2022-10-05T03:50:36.381Z,17.28
2022-10-05T03:53:06.477Z,17.21
2022-10-05T03:55:33.969Z,17.34
2022-10-05T03:58:06.642Z,17.37
2022-10-05T04:00:35.376Z,17.34
2022-10-05T04:03:20.449Z,17.16
2022-10-05T04:05:50.564Z,17.32
2022-10-05T04:08:30.869Z,17.35
2022-10-05T04:11:01.449Z,17.35
2022-10-05T04:13:28.533Z,17.17
2022-10-05T04:15:58.843Z,17.23
2022-10-05T04:18:29.180Z,17.30
2022-10-05T04:20:58.923Z,17.26
2022-10-05T04:23:41.855Z,17.27
2022-10-05T04:26:15.573Z,17.30
2022-10-05T04:28:52.250Z,17.36
2022-10-05T04:31:34.798Z,17.26
2022-10-05T04:34:14.210Z,17.14
2022-10-05T04:36:46.040Z,17.03
2022-10-05T04:39:22.348Z,16.94
2022-10-05T04:42:02.925Z,16.91
2022-10-05T04:44:33.940Z,16.88
2022-10-05T04:47:12.769Z,16.91
2022-10-05T04:49:55.736Z,17.02
2022-10-05T04:52:40.318Z,17.16
2022-10-05T04:55:23.064Z,17.28
2022-10-05T04:57:56.434Z,17.47
2022-10-05T05:00:25.269Z,17.50
2022-10-05T05:03:21.375Z,17.51
2022-10-05T05:06:19.538Z,17.39
2022-10-05T05:09:09.504Z,17.29
2022-10-05T05:11:43.585Z,17.23
2022-10-05T05:14:13.531Z,17.09
2022-10-05T05:16:42.593Z,17.10
2022-10-05T05:19:23.027Z,17.13
2022-10-05T05:22:13.513Z,17.21
2022-10-05T05:24:52.983Z,17.26
2022-10-05T05:27:23.397Z,17.27
2022-10-05T05:29:53.605Z,17.28
2022-10-05T05:32:24.097Z,17.26
2022-10-05T05:35:06.611Z,17.24
2022-10-05T05:37:37.998Z,17.22
2022-10-05T05:40:24.015Z,17.23
2022-10-05T05:42:54.876Z,17.22
2022-10-05T05:45:33.092Z,17.27
2022-10-05T05:48:02.950Z,17.25
2022-10-05T05:50:32.286Z,17.12
2022-10-05T05:53:15.298Z,17.08
2022-10-05T05:55:46.474Z,16.96
2022-10-05T05:58:17.411Z,16.87
2022-10-05T06:00:50.896Z,16.95
2022-10-05T06:03:24.872Z,17.02
2022-10-05T06:05:55.240Z,17.10
2022-10-05T06:08:41.273Z,17.09
2022-10-05T06:11:41.063Z,17.11
2022-10-05T06:14:14.881Z,17.14
2022-10-05T06:16:47.322Z,17.24
2022-10-05T06:19:17.628Z,17.32
2022-10-05T06:22:03.269Z,17.31
2022-10-05T06:24:38.669Z,17.37
2022-10-05T06:27:18.062Z,17.52
2022-10-05T06:29:45.218Z,17.51
2022-10-05T06:32:27.657Z,17.52
2022-10-05T06:35:01.644Z,17.45
2022-10-05T06:37:39.768Z,17.44
2022-10-05T06:40:14.502Z,17.43
2022-10-05T06:42:41.670Z,17.49
2022-10-05T06:45:38.235Z,17.46
2022-10-05T06:48:17.473Z,17.51
2022-10-05T06:51:26.619Z,17.66
2022-10-05T06:54:20.003Z,17.65
2022-10-05T06:56:56.288Z,17.68
2022-10-05T06:59:42.289Z,17.66
2022-10-05T07:02:09.528Z,17.66
2022-10-05T07:04:56.100Z,17.65
2022-10-05T07:07:29.506Z,17.72
2022-10-05T07:10:14.840Z,17.74
2022-10-05T07:13:02.791Z,17.80
2022-10-05T07:15:48.958Z,17.86
2022-10-05T07:18:21.891Z,17.82
2022-10-05T07:20:50.876Z,17.81
2022-10-05T07:23:19.795Z,17.95
2022-10-05T07:26:03.048Z,17.97
2022-10-05T07:28:33.553Z,17.87
2022-10-05T07:31:07.178Z,17.82
2022-10-05T07:33:40.767Z,17.79
2022-10-05T07:36:32.803Z,17.69
2022-10-05T07:39:03.192Z,17.76
2022-10-05T07:41:37.382Z,17.81
2022-10-05T07:44:13.079Z,17.96
2022-10-05T07:46:51.903Z,18.16
2022-10-05T07:49:26.737Z,18.39
2022-10-05T07:52:10.280Z,18.45
2022-10-05T07:54:47.544Z,18.34
2022-10-05T07:57:21.003Z,18.14
2022-10-05T07:59:56.762Z,18.19
2022-10-05T08:02:36.301Z,18.37
2022-10-05T08:05:37.141Z,18.52
2022-10-05T08:08:18.188Z,18.58
2022-10-05T08:10:46.987Z,18.66
2022-10-05T08:13:14.409Z,18.73
2022-10-05T08:15:43.305Z,18.77
2022-10-05T08:18:30.634Z,18.87
2022-10-05T08:20:58.584Z,18.92
2022-10-05T08:23:31.906Z,19.02
2022-10-05T08:26:25.416Z,19.02
2022-10-05T08:29:13.802Z,19.15
2022-10-05T08:31:43.017Z,19.17
2022-10-05T08:34:21.041Z,19.25
2022-10-05T08:36:51.611Z,19.39
2022-10-05T08:39:21.498Z,19.44
2022-10-05T08:41:59.824Z,19.51
2022-10-05T08:44:45.337Z,19.56
2022-10-05T08:47:21.554Z,19.21
2022-10-05T08:50:07.729Z,19.39
2022-10-05T08:52:41.508Z,19.62
2022-10-05T08:55:31.070Z,19.57
2022-10-05T08:58:07.985Z,19.67
2022-10-05T09:00:53.928Z,20.03
2022-10-05T09:03:52.917Z,19.97
2022-10-05T09:06:45.359Z,20.32
2022-10-05T09:09:18.702Z,20.24
2022-10-05T09:11:55.458Z,19.85
2022-10-05T09:14:52.650Z,19.91
2022-10-05T09:17:50.043Z,19.74
2022-10-05T09:20:22.866Z,19.82
2022-10-05T09:23:08.531Z,19.83
2022-10-05T09:25:46.938Z,19.79
2022-10-05T09:28:20.241Z,19.81
2022-10-05T09:30:50.546Z,19.86
2022-10-05T09:33:30.036Z,19.85
2022-10-05T09:36:15.984Z,19.76
2022-10-05T09:39:01.959Z,19.77
2022-10-05T09:41:44.691Z,19.81
2022-10-05T09:44:18.853Z,19.80
2022-10-05T09:46:52.304Z,19.78
2022-10-05T09:49:19.452Z,19.75
2022-10-05T09:51:46.827Z,19.82
2022-10-05T09:54:17.235Z,19.77
2022-10-05T09:56:57.168Z,19.84
2022-10-05T09:59:39.626Z,19.88
2022-10-05T10:02:06.923Z,20.05
2022-10-05T10:04:34.361Z,20.06
2022-10-05T10:07:17.184Z,20.27
2022-10-05T10:09:56.640Z,20.28
2022-10-05T10:12:26.744Z,20.47
2022-10-05T10:15:01.929Z,20.59
2022-10-05T10:17:42.431Z,20.69
2022-10-05T10:20:26.121Z,20.88
2022-10-05T10:23:12.020Z,21.01
2022-10-05T10:25:48.444Z,20.99
2022-10-05T10:28:28.178Z,20.90
2022-10-05T10:31:14.499Z,20.85
2022-10-05T10:33:47.917Z,20.79
2022-10-05T10:36:34.116Z,20.72
2022-10-05T10:39:17.622Z,20.61
2022-10-05T10:41:54.089Z,20.65
2022-10-05T10:44:33.434Z,20.66
2022-10-05T10:47:13.316Z,20.61
2022-10-05T10:49:56.141Z,20.62
2022-10-05T10:52:42.105Z,20.66
2022-10-05T10:55:27.643Z,20.67
2022-10-05T10:57:54.785Z,20.66
2022-10-05T11:00:27.304Z,20.78
2022-10-05T11:03:13.417Z,20.83
2022-10-05T11:05:55.174Z,20.68
2022-10-05T11:08:37.410Z,20.56
2022-10-05T11:11:23.447Z,20.62
2022-10-05T11:14:10.394Z,20.63
2022-10-05T11:16:50.091Z,20.65
2022-10-05T11:19:40.452Z,20.57
2022-10-05T11:22:33.510Z,20.45
2022-10-05T11:25:19.869Z,20.46
2022-10-05T11:27:59.879Z,20.48
2022-10-05T11:30:36.394Z,20.37
2022-10-05T11:33:11.319Z,20.32
2022-10-05T11:35:38.478Z,20.32
2022-10-05T11:38:08.923Z,20.28
2022-10-05T11:40:56.108Z,20.25
2022-10-05T11:43:26.217Z,20.22
2022-10-05T11:46:12.449Z,20.32
2022-10-05T11:48:42.883Z,20.33
2022-10-05T11:51:27.769Z,20.29
2022-10-05T11:53:57.618Z,20.30
2022-10-05T11:56:50.781Z,20.30
2022-10-05T11:59:34.930Z,20.30
2022-10-05T12:02:20.557Z,20.28
2022-10-05T12:04:50.969Z,20.26
2022-10-05T12:07:18.160Z,20.30
2022-10-05T12:10:07.315Z,20.38
2022-10-05T12:12:44.694Z,20.47
2022-10-05T12:15:18.988Z,20.51
2022-10-05T12:18:08.270Z,20.51
2022-10-05T12:20:40.754Z,20.57
2022-10-05T12:23:15.084Z,20.55
2022-10-05T12:25:45.598Z,20.55
2022-10-05T12:28:16.151Z,20.56
2022-10-05T12:31:13.006Z,20.51
2022-10-05T12:33:40.262Z,20.55
2022-10-05T12:36:15.459Z,20.66
2022-10-05T12:38:45.716Z,20.56
2022-10-05T12:41:16.002Z,20.65
2022-10-05T12:43:43.203Z,20.51
2022-10-05T12:46:19.732Z,20.49
2022-10-05T12:48:56.231Z,20.56
2022-10-05T12:51:35.731Z,20.62
2022-10-05T12:54:02.950Z,20.68
2022-10-05T12:56:37.579Z,20.72
2022-10-05T12:59:14.435Z,20.72
2022-10-05T13:01:43.784Z,20.68
2022-10-05T13:04:31.211Z,20.70
2022-10-05T13:07:07.580Z,20.73
2022-10-05T13:09:34.812Z,20.79
2022-10-05T13:12:13.105Z,20.84
2022-10-05T13:14:53.735Z,20.91
2022-10-05T13:17:28.729Z,20.96
2022-10-05T13:20:03.708Z,21.02
2022-10-05T13:22:39.695Z,21.06
2022-10-05T13:25:27.151Z,21.05
2022-10-05T13:27:59.895Z,20.96
2022-10-05T13:30:27.502Z,20.98
2022-10-05T13:33:04.448Z,20.95
2022-10-05T13:35:31.586Z,20.96
2022-10-05T13:38:17.523Z,20.98
2022-10-05T13:41:08.467Z,21.01
2022-10-05T13:43:55.141Z,21.02
2022-10-05T13:46:22.271Z,21.01
2022-10-05T13:48:55.729Z,21.05
2022-10-05T13:51:46.037Z,21.03
2022-10-05T13:54:36.346Z,20.95
2022-10-05T13:57:17.120Z,21.01
2022-10-05T13:59:50.446Z,21.00
2022-10-05T14:02:20.799Z,21.08
2022-10-05T14:04:49.155Z,21.12
2022-10-05T14:07:22.345Z,21.23
2022-10-05T14:09:52.489Z,21.21
2022-10-05T14:12:21.426Z,21.17
2022-10-05T14:14:52.759Z,21.03
2022-10-05T14:17:39.885Z,21.03
2022-10-05T14:20:36.740Z,21.07
2022-10-05T14:23:11.267Z,21.02
2022-10-05T14:25:53.741Z,21.00
2022-10-05T14:28:34.593Z,21.04
2022-10-05T14:31:27.242Z,21.12
2022-10-05T14:33:54.815Z,21.03
2022-10-05T14:36:40.281Z,21.12
2022-10-05T14:39:12.266Z,21.03
2022-10-05T14:41:48.015Z,20.99
2022-10-05T14:44:15.568Z,21.01
2022-10-05T14:46:54.628Z,21.04
2022-10-05T14:49:36.538Z,21.04
2022-10-05T14:52:23.167Z,21.05
2022-10-05T14:55:06.015Z,21.09
2022-10-05T14:57:34.119Z,21.14
2022-10-05T15:00:04.119Z,21.16
2022-10-05T15:02:37.600Z,21.12
2022-10-05T15:05:15.246Z,21.05
2022-10-05T15:07:43.968Z,21.04
2022-10-05T15:10:27.010Z,21.06
2022-10-05T15:12:55.478Z,21.10
2022-10-05T15:15:41.250Z,21.06
2022-10-05T15:18:31.650Z,21.03
2022-10-05T15:21:09.037Z,21.06
2022-10-05T15:23:42.781Z,21.06
2022-10-05T15:26:10.179Z,20.99
2022-10-05T15:28:55.811Z,21.02
2022-10-05T15:31:22.936Z,20.99
2022-10-05T15:33:59.328Z,20.94
2022-10-05T15:36:45.296Z,20.99
2022-10-05T15:39:25.335Z,21.01
2022-10-05T15:41:55.440Z,20.94
2022-10-05T15:44:22.496Z,20.90
2022-10-05T15:46:57.695Z,20.86
2022-10-05T15:49:34.374Z,20.85
2022-10-05T15:52:23.353Z,20.88
2022-10-05T15:55:09.284Z,20.99
2022-10-05T15:57:41.288Z,21.02
2022-10-05T16:00:12.862Z,20.96
2022-10-05T16:02:43.091Z,20.95
2022-10-05T16:05:42.641Z,20.85
2022-10-05T16:08:35.130Z,20.78
2022-10-05T16:11:05.257Z,20.73
2022-10-05T16:13:39.870Z,20.74
2022-10-05T16:16:08.056Z,20.71
2022-10-05T16:19:11.317Z,20.72
2022-10-05T16:21:47.569Z,20.77
2022-10-05T16:24:26.042Z,20.73
2022-10-05T16:26:53.204Z,20.81
2022-10-05T16:29:26.298Z,20.77
2022-10-05T16:32:05.792Z,20.74
2022-10-05T16:34:41.852Z,20.72
2022-10-05T16:37:28.189Z,20.69
2022-10-05T16:39:58.523Z,20.65
2022-10-05T16:42:34.973Z,20.67
2022-10-05T16:45:06.826Z,20.60
2022-10-05T16:47:47.489Z,20.57
2022-10-05T16:50:17.455Z,20.55
2022-10-05T16:52:47.129Z,20.55
2022-10-05T16:55:19.993Z,20.52
2022-10-05T16:57:51.442Z,20.49
2022-10-05T17:00:30.761Z,20.48
2022-10-05T17:03:16.668Z,20.47
2022-10-05T17:05:55.148Z,20.51
2022-10-05T17:08:34.224Z,20.50
2022-10-05T17:11:06.437Z,20.51
2022-10-05T17:13:48.906Z,20.55
2022-10-05T17:16:18.985Z,20.52
2022-10-05T17:19:04.633Z,20.46
2022-10-05T17:21:38.386Z,20.41
2022-10-05T17:24:11.669Z,20.37
2022-10-05T17:26:57.505Z,20.41
2022-10-05T17:29:28.020Z,20.33
2022-10-05T17:32:00.029Z,20.31
2022-10-05T17:34:34.312Z,20.31
2022-10-05T17:37:20.314Z,20.38
2022-10-05T17:39:49.379Z,20.38
2022-10-05T17:42:31.658Z,20.30
2022-10-05T17:45:13.773Z,20.27
2022-10-05T17:48:01.279Z,20.23
2022-10-05T17:54:03.239Z,20.30
2022-10-05T17:56:55.924Z,20.22
2022-10-05T17:59:35.376Z,20.18
2022-10-05T18:02:21.721Z,20.21
2022-10-05T18:05:12.424Z,20.15
2022-10-05T18:07:40.377Z,20.14
2022-10-05T18:10:15.387Z,20.04
2022-10-05T18:12:50.708Z,19.97
2022-10-05T18:15:24.105Z,19.91
2022-10-05T18:17:54.682Z,19.86
2022-10-05T18:20:25.513Z,19.84
2022-10-05T18:22:54.300Z,19.88
2022-10-05T18:25:38.256Z,19.83
2022-10-05T18:28:08.406Z,19.71
2022-10-05T18:30:44.869Z,19.61
2022-10-05T18:33:29.862Z,19.54
2022-10-05T18:36:03.335Z,19.48
2022-10-05T18:38:41.028Z,19.42
2022-10-05T18:41:09.077Z,19.39
2022-10-05T18:43:36.252Z,19.36
2022-10-05T18:46:09.585Z,19.33
2022-10-05T18:48:57.682Z,19.29
2022-10-05T18:51:29.946Z,19.29
2022-10-05T18:54:12.630Z,19.26
2022-10-05T18:56:49.513Z,19.13
2022-10-05T18:59:39.660Z,19.09
2022-10-05T19:02:11.229Z,19.05
2022-10-05T19:04:47.307Z,18.97
2022-10-05T19:07:17.275Z,18.90
2022-10-05T19:10:00.910Z,18.83
2022-10-05T19:12:41.353Z,18.72
2022-10-05T19:15:21.060Z,18.57
2022-10-05T19:17:58.671Z,18.46
2022-10-05T19:20:25.805Z,18.43
2022-10-05T19:22:52.879Z,18.42
2022-10-05T19:25:29.339Z,18.37
2022-10-05T19:28:15.883Z,18.31
2022-10-05T19:31:01.309Z,18.23
2022-10-05T19:33:28.750Z,18.29
2022-10-05T19:35:58.979Z,18.29
2022-10-05T19:38:40.515Z,18.28
2022-10-05T19:41:14.437Z,18.26
2022-10-05T19:44:02.595Z,18.23
2022-10-05T19:46:30.986Z,18.15
2022-10-05T19:49:00.164Z,18.12
2022-10-05T19:51:29.983Z,18.11
2022-10-05T19:54:00.446Z,18.07
2022-10-05T19:56:32.686Z,18.01
2022-10-05T19:59:10.905Z,17.99
2022-10-05T20:01:42.268Z,17.99
2022-10-05T20:04:10.310Z,18.08
2022-10-05T20:06:40.143Z,18.06
2022-10-05T20:09:21.506Z,18.07
2022-10-05T20:11:50.177Z,18.08
2022-10-05T20:14:18.870Z,18.03
2022-10-05T20:17:04.885Z,17.97
2022-10-05T20:19:51.436Z,17.96
2022-10-05T20:22:36.428Z,17.95
2022-10-05T20:25:10.759Z,17.97
2022-10-05T20:27:51.542Z,17.95
2022-10-05T20:30:20.209Z,17.88
2022-10-05T20:33:01.443Z,17.88
2022-10-05T20:35:32.403Z,17.89
2022-10-05T20:38:00.083Z,17.85
2022-10-05T20:40:29.183Z,17.80
2022-10-05T20:42:57.360Z,17.81
2022-10-05T20:45:24.782Z,17.78
2022-10-05T20:47:52.439Z,17.76
2022-10-05T20:50:22.298Z,17.71
2022-10-05T20:52:49.814Z,17.66
2022-10-05T20:55:17.092Z,17.49
2022-10-05T20:57:46.166Z,17.50
2022-10-05T21:00:13.871Z,17.52
2022-10-05T21:02:41.073Z,17.53
2022-10-05T21:05:08.674Z,17.45
2022-10-05T21:07:37.001Z,17.44
2022-10-05T21:10:04.416Z,17.41
2022-10-05T21:12:34.099Z,17.39
2022-10-05T21:15:04.775Z,17.38
2022-10-05T21:17:32.979Z,17.35
2022-10-05T21:20:00.152Z,17.32
2022-10-05T21:22:27.374Z,17.29
2022-10-05T21:24:55.815Z,17.29
2022-10-05T21:27:23.951Z,17.29
2022-10-05T21:29:51.677Z,17.23
2022-10-05T21:32:18.844Z,17.21
2022-10-05T21:34:46.282Z,17.20
2022-10-05T21:37:15.445Z,17.14
2022-10-05T21:39:44.998Z,17.09
2022-10-05T21:42:12.261Z,17.09
2022-10-05T21:44:40.198Z,17.10
2022-10-05T21:47:25.899Z,17.09
2022-10-05T21:49:53.105Z,17.04
2022-10-05T21:52:20.591Z,17.07
2022-10-05T21:54:47.941Z,17.01
2022-10-05T21:57:15.441Z,16.96
2022-10-05T21:59:43.104Z,16.99
2022-10-05T22:02:10.285Z,16.98
2022-10-05T22:04:37.527Z,16.94
2022-10-05T22:07:18.595Z,16.87
2022-10-05T22:09:49.440Z,16.82
2022-10-05T22:12:17.113Z,16.88
2022-10-05T22:14:44.338Z,16.94
2022-10-05T22:17:20.703Z,16.97
2022-10-05T22:19:47.873Z,16.97
2022-10-05T22:22:15.050Z,16.97
2022-10-05T22:24:42.186Z,16.96
2022-10-05T22:27:09.578Z,16.93
2022-10-05T22:29:36.887Z,16.90
2022-10-05T22:32:04.215Z,16.87
2022-10-05T22:34:31.391Z,16.84
2022-10-05T22:36:58.943Z,16.81
2022-10-05T22:39:26.123Z,16.78
2022-10-05T22:41:53.317Z,16.75
2022-10-05T22:44:20.765Z,16.69
2022-10-05T22:46:48.128Z,16.68
2022-10-05T22:49:15.292Z,16.68
2022-10-05T22:51:42.400Z,16.61
2022-10-05T22:54:09.573Z,16.62
2022-10-05T22:56:36.732Z,16.66
2022-10-05T22:59:03.938Z,16.65
2022-10-05T23:01:31.177Z,16.62
2022-10-05T23:03:58.540Z,16.67
2022-10-05T23:06:26.677Z,16.62
2022-10-05T23:08:54.099Z,16.58
2022-10-05T23:11:23.692Z,16.48
2022-10-05T23:13:52.234Z,16.46
2022-10-05T23:16:20.540Z,16.54
2022-10-05T23:18:48.867Z,16.58
2022-10-05T23:21:16.654Z,16.55
2022-10-05T23:23:47.385Z,16.48
2022-10-05T23:26:15.272Z,16.44
2022-10-05T23:28:46.589Z,16.42
2022-10-05T23:31:14.925Z,16.36
2022-10-05T23:33:42.143Z,16.40
2022-10-05T23:36:12.008Z,16.45
2022-10-05T23:38:39.239Z,16.46
2022-10-05T23:41:07.576Z,16.47
2022-10-05T23:43:35.144Z,16.48
2022-10-05T23:46:05.586Z,16.47
2022-10-05T23:48:33.108Z,16.44
2022-10-05T23:51:00.729Z,16.42
2022-10-05T23:53:27.855Z,16.46
2022-10-05T23:55:55.550Z,16.48
2022-10-05T23:58:22.876Z,16.42
